Time;durP1;ratioP1;P1;durP2;ratioP2;P2;SDS_P1;SDS_P2;PMS_P1;PMS_P2;Temp;Humidity;BMP_temperature;BMP_pressure;BME280_temperature;BME280_humidity;BME280_pressure;Samples;Min_cycle;Max_cycle;Signal;HPM_P1;HPM_P2
2021/12/04 00:02:06;;;;;;;0.32;0.20;;;13.50;94.10;;;;;;5116300;27;20051;-74
2021/12/04 00:04:39;;;;;;;0.80;0.17;;;13.50;94.10;;;;;;5111868;28;20031;-74
2021/12/04 00:07:07;;;;;;;0.68;0.20;;;13.50;94.10;;;;;;5112757;28;20024;-74
2021/12/04 00:09:34;;;;;;;0.63;0.20;;;13.50;94.10;;;;;;5115823;28;20106;-73
2021/12/04 00:12:01;;;;;;;1.27;0.20;;;13.50;94.20;;;;;;5100660;28;20070;-73
2021/12/04 00:14:28;;;;;;;1.77;0.20;;;13.50;94.20;;;;;;5112592;28;20015;-74
2021/12/04 00:16:54;;;;;;;0.98;0.20;;;13.50;94.10;;;;;;5113765;28;20027;-74
2021/12/04 00:19:21;;;;;;;1.05;0.20;;;13.50;94.10;;;;;;5111683;28;20043;-74
2021/12/04 00:21:47;;;;;;;1.05;0.20;;;13.50;94.10;;;;;;5112590;28;20503;-73
2021/12/04 00:24:13;;;;;;;0.30;0.25;;;13.50;94.10;;;;;;5113707;28;20032;-73
2021/12/04 00:26:39;;;;;;;0.43;0.20;;;13.50;94.20;;;;;;5113376;28;20031;-73
2021/12/04 00:29:05;;;;;;;0.25;0.20;;;13.50;94.10;;;;;;5111433;28;20026;-72
2021/12/04 00:31:32;;;;;;;0.73;0.20;;;13.50;94.30;;;;;;5095109;28;20027;-73
2021/12/04 00:33:58;;;;;;;1.83;0.77;;;13.50;94.20;;;;;;5111601;28;20069;-73
2021/12/04 00:50:10;;;;;;;0.63;0.13;;;13.50;94.20;;;;;;5029413;28;20025;-74
2021/12/04 00:52:36;;;;;;;0.40;0.20;;;13.50;94.30;;;;;;5029521;28;20037;-73
2021/12/04 00:55:04;;;;;;;0.20;0.10;;;13.50;94.20;;;;;;5028600;28;20592;-73
2021/12/04 00:57:30;;;;;;;0.63;0.28;;;13.50;94.20;;;;;;5030729;28;20062;-73
2021/12/04 00:59:56;;;;;;;0.20;0.20;;;13.50;94.30;;;;;;5028880;28;20136;-73
2021/12/04 01:02:22;;;;;;;1.70;0.20;;;13.50;94.30;;;;;;5030135;28;20175;-73
2021/12/04 01:04:48;;;;;;;0.40;0.20;;;13.50;94.30;;;;;;5027853;28;20121;-73
2021/12/04 01:07:14;;;;;;;0.47;0.25;;;13.50;94.30;;;;;;5027572;28;20065;-72
2021/12/04 01:09:40;;;;;;;0.68;0.20;;;13.50;94.30;;;;;;5030326;28;20026;-72
2021/12/04 01:12:06;;;;;;;0.52;0.20;;;13.50;94.30;;;;;;5045988;28;20025;-72
2021/12/04 01:14:33;;;;;;;0.30;0.20;;;13.50;94.30;;;;;;5027588;28;20040;-73
2021/12/04 01:16:59;;;;;;;0.52;0.20;;;13.50;94.30;;;;;;5027731;28;20041;-72
2021/12/04 01:19:25;;;;;;;0.30;0.10;;;13.50;94.30;;;;;;5027772;28;20042;-72
2021/12/04 01:21:53;;;;;;;0.52;0.28;;;13.60;94.40;;;;;;5099738;28;20032;-72
2021/12/04 01:24:20;;;;;;;0.65;0.20;;;13.50;94.30;;;;;;5113863;28;20032;-72
2021/12/04 01:26:47;;;;;;;0.60;0.20;;;13.60;94.30;;;;;;5110150;28;20027;-72
2021/12/04 01:29:12;;;;;;;0.30;0.20;;;13.60;94.30;;;;;;5096381;28;20020;-72
2021/12/04 01:31:38;;;;;;;0.40;0.20;;;13.50;94.30;;;;;;5109822;28;20027;-72
2021/12/04 01:34:04;;;;;;;1.10;0.10;;;13.60;94.30;;;;;;5109694;28;20107;-73
2021/12/04 01:36:30;;;;;;;0.17;0.10;;;13.60;94.30;;;;;;5112311;28;20027;-73
2021/12/04 01:38:55;;;;;;;1.02;0.20;;;13.60;94.20;;;;;;5110355;28;20031;-73
2021/12/04 01:41:21;;;;;;;0.10;0.10;;;13.60;94.20;;;;;;5109936;28;20482;-72
2021/12/04 01:43:47;;;;;;;0.88;0.35;;;13.60;94.30;;;;;;5109805;28;20028;-73
2021/12/04 01:46:13;;;;;;;0.55;0.13;;;13.60;94.20;;;;;;5109656;28;20514;-73
2021/12/04 01:48:39;;;;;;;0.20;0.10;;;13.60;94.30;;;;;;5111420;28;20480;-73
2021/12/04 01:51:05;;;;;;;0.28;0.10;;;13.60;94.30;;;;;;5111081;28;20088;-73
2021/12/04 01:53:31;;;;;;;0.40;0.10;;;13.60;94.30;;;;;;5110444;27;20411;-73
2021/12/04 01:55:58;;;;;;;0.10;0.10;;;13.50;94.20;;;;;;5109893;28;20031;-73
2021/12/04 01:58:26;;;;;;;1.13;0.17;;;13.60;94.30;;;;;;5109460;28;20029;-73
2021/12/04 02:00:51;;;;;;;0.10;0.10;;;13.60;94.30;;;;;;5112517;27;20116;-73
2021/12/04 02:03:18;;;;;;;1.48;0.30;;;13.60;94.30;;;;;;5112878;28;20524;-73
2021/12/04 02:05:45;;;;;;;0.25;0.10;;;13.60;94.20;;;;;;5108972;28;20020;-73
2021/12/04 02:08:20;;;;;;;0.40;0.15;;;13.60;94.20;;;;;;5108909;28;20539;-73
2021/12/04 02:10:48;;;;;;;1.23;0.10;;;13.60;94.20;;;;;;5108491;28;20388;-72
2021/12/04 02:13:15;;;;;;;0.20;0.17;;;13.60;94.30;;;;;;5109496;28;20016;-72
2021/12/04 02:15:42;;;;;;;1.10;0.20;;;13.50;94.20;;;;;;5111246;28;20520;-73
2021/12/04 02:18:08;;;;;;;0.20;0.10;;;13.60;94.30;;;;;;5110871;28;20023;-73
2021/12/04 02:20:35;;;;;;;0.47;0.20;;;13.60;94.30;;;;;;5109418;28;20031;-73
2021/12/04 02:23:04;;;;;;;0.30;0.10;;;13.50;94.20;;;;;;5108999;28;20035;-73
2021/12/04 02:25:30;;;;;;;0.73;0.20;;;13.50;94.20;;;;;;5110942;28;20072;-73
2021/12/04 02:27:56;;;;;;;0.40;0.10;;;13.60;94.30;;;;;;5108631;28;20039;-73
2021/12/04 02:30:25;;;;;;;0.50;0.10;;;13.50;94.30;;;;;;5113042;28;20024;-73
2021/12/04 02:32:51;;;;;;;0.22;0.13;;;13.60;94.30;;;;;;5108959;28;20480;-73
2021/12/04 02:35:19;;;;;;;0.80;0.20;;;13.50;94.30;;;;;;5108954;28;20476;-73
2021/12/04 02:37:45;;;;;;;0.75;0.15;;;13.60;94.30;;;;;;5108856;28;20015;-73
2021/12/04 02:40:12;;;;;;;0.40;0.10;;;13.60;94.30;;;;;;5108822;28;20053;-71
2021/12/04 02:42:39;;;;;;;0.35;0.10;;;13.50;94.30;;;;;;5111077;28;20476;-71
2021/12/04 02:45:08;;;;;;;1.15;0.25;;;13.60;94.40;;;;;;5109995;28;20042;-73
2021/12/04 02:47:34;;;;;;;0.60;0.25;;;13.60;94.40;;;;;;5108114;28;20020;-73
2021/12/04 02:50:00;;;;;;;0.63;0.17;;;13.60;94.30;;;;;;5108490;28;20023;-73
2021/12/04 02:52:26;;;;;;;0.50;0.10;;;13.50;94.30;;;;;;5109587;28;20020;-74
2021/12/04 02:54:52;;;;;;;0.10;0.03;;;13.60;94.40;;;;;;5109616;28;20051;-74
2021/12/04 02:57:20;;;;;;;1.40;0.13;;;13.60;94.40;;;;;;5132067;27;20061;-74
2021/12/04 02:59:46;;;;;;;0.40;0.13;;;13.60;94.40;;;;;;5108785;28;20043;-74
2021/12/04 03:02:18;;;;;;;0.32;0.10;;;13.60;94.30;;;;;;5111246;28;20019;-74
2021/12/04 03:04:55;;;;;;;0.70;0.20;;;13.60;94.30;;;;;;5108627;28;20023;-74
2021/12/04 03:07:22;;;;;;;0.40;0.10;;;13.60;94.20;;;;;;5108267;28;20076;-74
2021/12/04 03:09:49;;;;;;;0.13;0.10;;;13.60;94.20;;;;;;5109860;28;20051;-72
2021/12/04 03:12:18;;;;;;;0.38;0.10;;;13.60;94.20;;;;;;5111221;28;20400;-72
2021/12/04 03:14:43;;;;;;;0.73;0.20;;;13.60;94.20;;;;;;5108476;28;20487;-73
2021/12/04 03:17:09;;;;;;;0.10;0.10;;;13.60;94.20;;;;;;5107965;28;20019;-73
2021/12/04 03:19:37;;;;;;;0.17;0.10;;;13.60;94.20;;;;;;5092474;28;20040;-72
2021/12/04 03:22:03;;;;;;;0.10;0.00;;;13.60;94.20;;;;;;5109559;28;20499;-72
2021/12/04 03:24:31;;;;;;;0.40;0.20;;;13.60;94.10;;;;;;5115539;28;20027;-72
2021/12/04 03:26:56;;;;;;;0.60;0.15;;;13.60;94.20;;;;;;5113613;28;20449;-73
2021/12/04 03:29:25;;;;;;;0.10;0.10;;;13.50;94.10;;;;;;5112363;28;20487;-72
2021/12/04 03:40:11;;;;;;;0.10;0.08;;;13.50;94.00;;;;;;5097515;28;20161;-74
2021/12/04 03:42:40;;;;;;;0.40;0.20;;;13.50;94.40;;;;;;5114733;28;20043;-74
2021/12/04 03:45:08;;;;;;;0.73;0.30;;;13.50;94.00;;;;;;5113568;28;20110;-74
2021/12/04 03:47:36;;;;;;;0.52;0.13;;;13.50;94.10;;;;;;5112255;28;20015;-74
2021/12/04 03:50:02;;;;;;;0.22;0.10;;;13.50;94.00;;;;;;5112222;28;20036;-73
2021/12/04 03:52:28;;;;;;;0.47;0.13;;;13.50;94.00;;;;;;5113217;27;20043;-72
2021/12/04 03:54:54;;;;;;;0.30;0.20;;;13.50;93.90;;;;;;5110777;28;20090;-73
2021/12/04 03:57:19;;;;;;;0.30;0.10;;;13.50;93.80;;;;;;5115167;28;20609;-72
2021/12/04 03:59:47;;;;;;;0.98;0.20;;;13.50;93.80;;;;;;5111477;28;20048;-73
2021/12/04 04:02:15;;;;;;;0.50;0.30;;;13.50;93.80;;;;;;5114994;27;20097;-73
2021/12/04 04:04:41;;;;;;;0.82;0.30;;;13.40;93.70;;;;;;5111874;28;20015;-74
2021/12/04 04:07:07;;;;;;;0.30;0.10;;;13.40;93.60;;;;;;5111826;28;20391;-74
2021/12/04 04:09:34;;;;;;;0.32;0.20;;;13.40;93.60;;;;;;5114410;28;20023;-74
2021/12/04 04:11:59;;;;;;;0.88;0.20;;;13.40;93.60;;;;;;5099177;28;20107;-74
2021/12/04 04:14:27;;;;;;;0.90;0.13;;;13.40;93.50;;;;;;5111402;28;20110;-74
2021/12/04 04:16:55;;;;;;;1.58;0.28;;;13.40;93.50;;;;;;5111334;28;20019;-74
2021/12/04 04:19:22;;;;;;;2.17;0.20;;;13.40;93.50;;;;;;5111382;28;20042;-73
2021/12/04 04:21:48;;;;;;;1.70;0.40;;;13.40;93.50;;;;;;5095398;28;20019;-74
2021/12/04 04:24:17;;;;;;;1.58;0.30;;;13.40;93.40;;;;;;5114100;28;20076;-73
2021/12/04 04:26:44;;;;;;;0.80;0.30;;;13.40;93.40;;;;;;5111457;28;20384;-73
2021/12/04 04:29:11;;;;;;;1.85;0.15;;;13.40;93.30;;;;;;5110960;28;20015;-73
2021/12/04 04:32:12;;;;;;;0.35;0.10;;;13.40;93.20;;;;;;5111353;28;20084;-72
2021/12/04 04:34:36;;;;;;;0.70;0.20;;;13.30;93.20;;;;;;5109646;28;20032;-72
2021/12/04 05:12:26;;;;;;;2.28;0.47;;;12.50;92.40;;;;;;5114126;28;20031;-73
2021/12/04 05:15:00;;;;;;;1.17;0.10;;;12.50;92.50;;;;;;5111068;28;20072;-74
2021/12/04 05:20:21;;;;;;;2.83;0.38;;;12.40;92.30;;;;;;5028025;28;20136;-72
2021/12/04 05:22:48;;;;;;;2.75;0.30;;;12.30;92.30;;;;;;5024440;28;20070;-73
2021/12/04 05:25:14;;;;;;;2.20;0.40;;;12.30;92.20;;;;;;5024055;28;20049;-73
2021/12/04 05:27:39;;;;;;;3.08;0.43;;;12.30;92.30;;;;;;5006553;28;20030;-74
2021/12/04 05:30:06;;;;;;;2.03;0.28;;;12.20;92.00;;;;;;5018380;28;20945;-72
2021/12/04 05:32:32;;;;;;;1.23;0.22;;;12.20;92.20;;;;;;5023100;28;20522;-72
2021/12/04 05:34:58;;;;;;;2.92;0.50;;;12.10;92.10;;;;;;5016276;28;20029;-73
2021/12/04 05:37:24;;;;;;;2.67;0.50;;;12.10;92.10;;;;;;5027680;28;20057;-73
2021/12/04 05:39:50;;;;;;;2.78;0.50;;;12.00;92.10;;;;;;5028426;28;20041;-73
2021/12/04 05:42:15;;;;;;;3.67;1.48;;;12.00;92.00;;;;;;5029825;28;20021;-73
2021/12/04 05:44:42;;;;;;;2.78;0.80;;;12.00;92.60;;;;;;5027624;28;20037;-73
2021/12/04 05:47:17;;;;;;;2.03;0.32;;;12.00;92.20;;;;;;5026631;28;20478;-73
2021/12/04 05:57:35;;;;;;;2.35;0.45;;;11.80;91.70;;;;;;5016216;28;20144;-73
2021/12/04 06:00:02;;;;;;;2.10;0.45;;;11.80;91.20;;;;;;5034466;28;20037;-73
2021/12/04 06:02:28;;;;;;;3.90;1.42;;;11.70;91.50;;;;;;5035395;28;20104;-73
2021/12/04 06:04:54;;;;;;;2.35;0.65;;;11.60;91.60;;;;;;5033974;28;20520;-72
2021/12/04 06:07:19;;;;;;;4.22;0.60;;;11.60;91.40;;;;;;5032983;28;20104;-73
2021/12/04 06:09:45;;;;;;;4.70;0.75;;;11.60;91.60;;;;;;5031083;28;20046;-73
2021/12/04 06:12:10;;;;;;;4.32;0.95;;;11.60;91.10;;;;;;5034952;28;20425;-72
2021/12/04 06:14:36;;;;;;;4.28;0.55;;;11.50;91.50;;;;;;5034323;28;20033;-72
2021/12/04 06:17:02;;;;;;;5.22;0.93;;;11.60;91.20;;;;;;5034261;28;20029;-73
2021/12/04 06:24:57;;;;;;;7.43;0.70;;;11.50;91.10;;;;;;5029609;28;20036;-72
2021/12/04 06:27:22;;;;;;;3.15;0.70;;;11.50;91.10;;;;;;5041870;28;20025;-71
2021/12/04 06:29:48;;;;;;;3.00;0.60;;;11.40;90.90;;;;;;5093815;28;20118;-71
2021/12/04 06:32:13;;;;;;;3.92;0.73;;;11.50;91.00;;;;;;5110252;28;20407;-71
2021/12/04 06:34:39;;;;;;;4.85;0.80;;;11.40;90.90;;;;;;5109448;28;20032;-72
2021/12/04 06:37:05;;;;;;;2.13;0.60;;;11.40;91.10;;;;;;5091373;28;20031;-73
2021/12/04 06:39:30;;;;;;;2.72;0.50;;;11.40;91.00;;;;;;5111340;28;20035;-73
2021/12/04 06:41:56;;;;;;;3.58;0.75;;;11.40;90.60;;;;;;5109876;28;20034;-73
2021/12/04 06:44:22;;;;;;;3.35;0.77;;;11.40;90.80;;;;;;5108849;28;20023;-73
2021/12/04 06:46:48;;;;;;;2.20;0.80;;;11.40;90.70;;;;;;5094701;28;20035;-73
2021/12/04 06:49:27;;;;;;;4.65;1.10;;;11.50;90.80;;;;;;5108893;28;20434;-72
2021/12/04 06:51:57;;;;;;;3.47;0.60;;;11.50;90.70;;;;;;5109650;28;20055;-73
2021/12/04 06:54:29;;;;;;;3.88;0.68;;;11.60;90.50;;;;;;5108060;28;20040;-72
2021/12/04 06:56:55;;;;;;;2.17;0.57;;;11.60;90.60;;;;;;5109270;28;20027;-72
2021/12/04 06:59:30;;;;;;;4.32;0.63;;;11.60;90.60;;;;;;5108851;28;20483;-72
2021/12/04 07:01:55;;;;;;;5.25;0.63;;;11.70;90.20;;;;;;5111761;28;20027;-72
2021/12/04 07:04:23;;;;;;;3.78;0.70;;;11.60;90.40;;;;;;5109108;28;20081;-73
2021/12/04 07:06:50;;;;;;;5.00;0.70;;;11.60;90.20;;;;;;5109889;28;20066;-73
2021/12/04 07:09:16;;;;;;;2.85;0.60;;;11.60;90.10;;;;;;5111086;28;20491;-73
2021/12/04 07:11:41;;;;;;;3.25;0.60;;;11.60;90.10;;;;;;5108480;28;20376;-73
2021/12/04 07:14:07;;;;;;;3.15;0.70;;;11.60;90.20;;;;;;5108363;28;20023;-73
2021/12/04 07:16:33;;;;;;;4.55;0.75;;;11.50;90.00;;;;;;5108433;28;20027;-73
2021/12/04 07:18:58;;;;;;;2.88;0.60;;;11.50;90.00;;;;;;5108377;28;20020;-73
2021/12/04 07:21:24;;;;;;;3.80;1.02;;;11.40;90.00;;;;;;5112238;28;20035;-73
2021/12/04 07:23:51;;;;;;;4.45;0.80;;;11.50;90.20;;;;;;5107946;28;20027;-73
2021/12/04 07:26:18;;;;;;;4.10;0.68;;;11.50;90.30;;;;;;5108532;28;20134;-73
2021/12/04 07:28:43;;;;;;;4.80;1.13;;;11.50;90.10;;;;;;5108051;28;20019;-73
2021/12/04 07:31:09;;;;;;;4.13;0.70;;;11.50;89.80;;;;;;5108240;28;20535;-74
2021/12/04 07:33:36;;;;;;;6.40;0.80;;;11.40;90.10;;;;;;5110500;28;20023;-73
2021/12/04 07:36:03;;;;;;;4.80;0.80;;;11.50;90.00;;;;;;5109461;28;20020;-73
2021/12/04 07:38:29;;;;;;;2.35;1.17;;;11.40;89.90;;;;;;5095834;28;20031;-72
2021/12/04 07:40:55;;;;;;;4.97;0.63;;;11.50;89.80;;;;;;5107595;28;20039;-73
2021/12/04 07:43:21;;;;;;;2.63;0.43;;;11.50;90.50;;;;;;5108061;28;20506;-72
2021/12/04 07:45:46;;;;;;;4.57;0.93;;;11.50;89.70;;;;;;5109757;28;20420;-72
2021/12/04 07:48:12;;;;;;;3.92;0.90;;;11.40;89.60;;;;;;5110465;28;20408;-72
2021/12/04 07:50:38;;;;;;;4.13;0.75;;;11.50;89.70;;;;;;5107742;28;20551;-72
2021/12/04 07:53:04;;;;;;;3.63;0.80;;;11.50;90.00;;;;;;5107544;28;20036;-72
2021/12/04 07:55:31;;;;;;;4.20;0.82;;;11.50;90.00;;;;;;5107638;28;20055;-72
2021/12/04 07:57:56;;;;;;;3.58;1.00;;;11.50;89.70;;;;;;5108194;28;20016;-73
2021/12/04 08:00:23;;;;;;;4.60;0.70;;;11.50;90.00;;;;;;5111856;28;20032;-73
2021/12/04 08:02:49;;;;;;;4.47;1.15;;;11.50;89.80;;;;;;5111087;27;20028;-72
2021/12/04 08:05:16;;;;;;;6.75;1.02;;;11.50;89.80;;;;;;5108292;28;20035;-67
2021/12/04 08:07:42;;;;;;;5.88;1.15;;;11.50;89.90;;;;;;5107313;28;20027;-66
2021/12/04 08:10:11;;;;;;;5.03;0.60;;;11.60;90.00;;;;;;5110953;28;20038;-66
2021/12/04 08:12:37;;;;;;;4.22;0.90;;;11.70;90.00;;;;;;5113985;28;20028;-66
2021/12/04 08:15:08;;;;;;;4.88;0.85;;;11.70;90.00;;;;;;5112871;28;20031;-66
2021/12/04 08:17:33;;;;;;;6.00;1.20;;;11.70;89.30;;;;;;5107339;27;20484;-66
2021/12/04 08:19:59;;;;;;;4.18;0.80;;;11.80;88.70;;;;;;5096007;28;20081;-69
2021/12/04 08:22:25;;;;;;;5.38;0.85;;;11.80;89.20;;;;;;5112538;28;20022;-66
2021/12/04 08:24:50;;;;;;;2.03;0.60;;;11.80;89.10;;;;;;5112213;28;20080;-67
2021/12/04 08:27:17;;;;;;;3.40;0.98;;;11.90;89.20;;;;;;5112832;27;20024;-67
2021/12/04 08:29:44;;;;;;;3.65;0.55;;;11.90;88.20;;;;;;5108943;28;20020;-67
2021/12/04 08:32:10;;;;;;;5.57;0.73;;;12.00;88.60;;;;;;5109341;28;20020;-68
2021/12/04 08:34:36;;;;;;;3.75;0.77;;;12.20;89.10;;;;;;5111815;27;20022;-65
2021/12/04 08:37:03;;;;;;;4.65;0.90;;;12.30;88.40;;;;;;5112055;27;20020;-65
2021/12/04 08:39:30;;;;;;;4.50;0.80;;;12.20;87.20;;;;;;5113141;28;20838;-67
2021/12/04 08:41:56;;;;;;;3.05;0.75;;;12.20;87.40;;;;;;5113850;27;20106;-67
2021/12/04 08:44:22;;;;;;;4.05;0.55;;;12.10;87.60;;;;;;5111768;28;20064;-66
2021/12/04 08:46:48;;;;;;;2.95;0.50;;;12.00;87.00;;;;;;5111227;27;20520;-66
2021/12/04 08:49:14;;;;;;;3.65;0.65;;;11.90;87.00;;;;;;5112114;27;20511;-65
2021/12/04 08:51:42;;;;;;;2.63;0.60;;;11.90;87.20;;;;;;5110389;28;20031;-66
2021/12/04 08:54:11;;;;;;;2.65;0.60;;;11.80;87.00;;;;;;5111027;27;20042;-66
2021/12/04 08:56:37;;;;;;;3.50;0.60;;;11.80;87.00;;;;;;5112005;27;20268;-66
2021/12/04 08:59:04;;;;;;;4.13;0.70;;;11.70;86.70;;;;;;5111372;27;20027;-67
2021/12/04 09:01:34;;;;;;;4.00;0.73;;;11.70;86.70;;;;;;5112337;27;20036;-66
2021/12/04 09:04:23;;;;;;;5.30;0.75;;;11.70;86.40;;;;;;5111910;27;20046;-67
2021/12/04 09:06:50;;;;;;;2.60;0.50;;;11.60;86.80;;;;;;5110658;27;21257;-67
2021/12/04 09:09:17;;;;;;;1.45;0.55;;;11.50;86.10;;;;;;5111166;27;20008;-65
2021/12/04 09:11:51;;;;;;;2.63;0.70;;;11.40;86.50;;;;;;5109557;27;20027;-68
2021/12/04 09:14:20;;;;;;;3.33;0.47;;;11.40;86.30;;;;;;5109217;28;20047;-67
2021/12/04 09:16:46;;;;;;;1.67;0.38;;;11.40;86.70;;;;;;5113399;27;20032;-67
2021/12/04 09:19:11;;;;;;;1.23;0.50;;;11.40;85.80;;;;;;5111132;28;20542;-66
2021/12/04 09:21:39;;;;;;;4.47;0.60;;;11.30;85.30;;;;;;5112382;27;20129;-66
2021/12/04 09:24:12;;;;;;;2.42;0.40;;;11.30;85.40;;;;;;5122151;27;20019;-66
2021/12/04 09:27:44;;;;;;;2.17;0.45;;;11.20;85.60;;;;;;5112802;27;20038;-65
2021/12/04 09:30:07;;;;;;;3.20;0.40;;;11.20;85.50;;;;;;5104626;28;20047;-66
2021/12/04 10:16:15;;;;;;;1.90;0.40;;;10.40;83.50;;;;;;5110168;27;20651;-66
2021/12/04 10:24:11;;;;;;;2.58;0.50;;;10.60;85.20;;;;;;5111528;27;19912;-67
2021/12/04 10:35:04;;;;;;;4.07;0.73;;;10.80;84.60;;;;;;5108678;28;20027;-66
2021/12/04 10:37:31;;;;;;;2.30;0.80;;;10.90;84.10;;;;;;5111117;27;20024;-66
2021/12/04 10:40:06;;;;;;;3.70;0.80;;;10.90;83.90;;;;;;5110472;28;20058;-66
2021/12/04 10:42:52;;;;;;;3.50;0.70;;;11.40;85.00;;;;;;5110729;27;20479;-66
2021/12/04 10:45:19;;;;;;;2.97;0.70;;;11.50;83.90;;;;;;5111703;28;20031;-67
2021/12/04 10:47:58;;;;;;;1.60;0.52;;;11.50;83.10;;;;;;5109231;27;20426;-67
2021/12/04 10:50:33;;;;;;;2.15;0.63;;;11.50;82.70;;;;;;5108966;28;20492;-66
2021/12/04 10:53:02;;;;;;;3.88;0.57;;;11.50;82.70;;;;;;5104474;27;20031;-67
2021/12/04 11:21:23;;;;;;;1.88;0.43;;;10.90;80.00;;;;;;4995724;28;20042;-66
2021/12/04 11:43:17;;;;;;;1.70;0.50;;;10.70;80.60;;;;;;4933107;29;20535;-66
2021/12/04 11:48:35;;;;;;;1.70;0.32;;;10.80;81.80;;;;;;4953568;29;20049;-66
2021/12/04 11:51:05;;;;;;;1.33;0.45;;;10.90;81.30;;;;;;4956151;28;20397;-70
2021/12/04 11:53:32;;;;;;;1.77;0.40;;;10.90;80.60;;;;;;5003890;28;20435;-67
2021/12/04 11:55:59;;;;;;;1.00;0.40;;;10.90;80.40;;;;;;4991597;28;20106;-69
2021/12/04 11:58:26;;;;;;;3.03;0.57;;;11.20;81.20;;;;;;4992680;28;20053;-67
2021/12/04 12:00:59;;;;;;;2.80;0.40;;;11.70;82.90;;;;;;4999855;28;20037;-68
2021/12/04 12:03:28;;;;;;;2.83;0.90;;;12.30;80.20;;;;;;5003777;28;20027;-68
2021/12/04 12:05:57;;;;;;;1.77;0.57;;;12.50;78.80;;;;;;5064876;27;20039;-67
2021/12/04 12:08:38;;;;;;;0.90;0.50;;;12.70;78.30;;;;;;5115565;27;20020;-67
2021/12/04 12:11:07;;;;;;;0.52;0.32;;;12.80;77.70;;;;;;5109226;27;20019;-67
2021/12/04 12:13:44;;;;;;;1.33;0.30;;;13.00;75.90;;;;;;5122593;27;20376;-68
2021/12/04 12:16:16;;;;;;;1.63;0.60;;;12.80;75.60;;;;;;5100648;28;20024;-67
2021/12/04 12:18:50;;;;;;;2.72;0.43;;;12.50;76.10;;;;;;5113730;27;20025;-68
2021/12/04 12:21:20;;;;;;;1.42;0.40;;;12.20;76.00;;;;;;5106112;27;20503;-67
2021/12/04 12:24:15;;;;;;;2.40;0.65;;;12.10;76.70;;;;;;5112062;27;20022;-69
2021/12/04 12:27:13;;;;;;;1.35;0.40;;;12.00;78.20;;;;;;5108765;27;20015;-67
2021/12/04 12:36:03;;;;;;;1.70;0.60;;;14.80;72.30;;;;;;5103017;27;20032;-67
2021/12/04 12:38:51;;;;;;;3.28;0.80;;;13.90;72.30;;;;;;5109450;27;20046;-67
2021/12/04 12:41:21;;;;;;;2.80;0.57;;;15.90;76.50;;;;;;5109795;27;20024;-67
2021/12/04 12:44:12;;;;;;;2.17;0.55;;;17.60;72.20;;;;;;5090644;28;20032;-70
2021/12/04 12:46:43;;;;;;;1.15;0.57;;;17.40;69.00;;;;;;5091356;27;20103;-67
2021/12/04 12:49:18;;;;;;;1.73;0.60;;;17.20;68.30;;;;;;5109389;28;20023;-67
2021/12/04 12:51:51;;;;;;;2.92;0.60;;;17.00;65.80;;;;;;5109485;27;20016;-68
2021/12/04 12:54:31;;;;;;;3.63;0.93;;;16.70;67.80;;;;;;5111218;27;20051;-68
2021/12/04 12:57:08;;;;;;;3.60;0.82;;;16.50;66.10;;;;;;5108483;27;20047;-68
2021/12/04 13:13:53;;;;;;;2.20;0.70;;;17.50;66.90;;;;;;5043151;28;20103;-68
2021/12/04 13:16:28;;;;;;;2.90;0.80;;;17.30;62.40;;;;;;5044555;28;20094;-68
2021/12/04 13:18:59;;;;;;;3.45;0.80;;;17.50;61.90;;;;;;5046229;28;20044;-68
2021/12/04 13:21:26;;;;;;;4.72;1.10;;;16.40;61.40;;;;;;5048050;28;20956;-68
2021/12/04 13:23:55;;;;;;;2.72;0.60;;;16.70;65.30;;;;;;5045590;28;20429;-68
2021/12/04 13:26:30;;;;;;;3.20;1.45;;;16.30;62.00;;;;;;5040239;28;20540;-68
2021/12/04 13:28:58;;;;;;;4.97;1.13;;;15.50;63.90;;;;;;5042651;28;20078;-69
2021/12/04 13:31:23;;;;;;;3.30;1.08;;;15.80;67.80;;;;;;5043647;28;20509;-69
2021/12/04 13:33:52;;;;;;;3.30;1.27;;;16.00;65.80;;;;;;5042534;28;20036;-68
2021/12/04 13:36:23;;;;;;;2.75;1.00;;;15.50;64.10;;;;;;5043954;28;20049;-71
2021/12/04 13:39:05;;;;;;;4.72;0.90;;;15.40;65.50;;;;;;5073477;28;20049;-69
2021/12/04 13:41:31;;;;;;;3.35;1.10;;;14.80;65.10;;;;;;5086154;28;20027;-69
2021/12/04 13:44:00;;;;;;;3.72;0.90;;;14.70;66.50;;;;;;5104614;27;20110;-69
2021/12/04 13:46:26;;;;;;;3.55;1.20;;;15.70;65.70;;;;;;5105153;27;20398;-70
2021/12/04 13:49:00;;;;;;;4.47;1.45;;;15.90;63.40;;;;;;5087217;27;20031;-69
2021/12/04 13:51:26;;;;;;;3.13;0.98;;;15.30;60.70;;;;;;5108728;27;20040;-68
2021/12/04 13:53:52;;;;;;;4.85;1.40;;;14.50;60.30;;;;;;5109827;27;20546;-67
2021/12/04 13:56:24;;;;;;;3.80;1.00;;;13.80;62.30;;;;;;5107665;27;20028;-67
2021/12/04 13:58:54;;;;;;;5.10;1.35;;;13.40;63.40;;;;;;5108954;27;20041;-68
2021/12/04 14:01:21;;;;;;;5.03;1.08;;;13.00;64.60;;;;;;5108926;27;20035;-69
2021/12/04 14:03:48;;;;;;;3.72;0.70;;;12.60;64.40;;;;;;5092177;28;20039;-68
2021/12/04 14:06:17;;;;;;;2.30;0.57;;;12.20;64.30;;;;;;5090393;28;20077;-68
2021/12/04 14:08:54;;;;;;;0.75;0.32;;;11.40;66.00;;;;;;5110097;27;20032;-69
2021/12/04 14:11:30;;;;;;;1.35;0.50;;;11.00;67.90;;;;;;5091819;27;20019;-70
2021/12/04 14:13:55;;;;;;;0.63;0.30;;;10.80;69.60;;;;;;5116349;27;20555;-69
2021/12/04 14:16:26;;;;;;;1.63;0.38;;;10.60;70.10;;;;;;5116481;27;20115;-69
2021/12/04 14:18:52;;;;;;;0.85;0.30;;;10.50;71.60;;;;;;5125874;27;20380;-69
2021/12/04 14:21:18;;;;;;;0.77;0.28;;;10.40;71.00;;;;;;5118106;27;20046;-73
2021/12/04 14:23:47;;;;;;;0.80;0.20;;;10.50;72.40;;;;;;5119006;27;20023;-68
2021/12/04 14:26:15;;;;;;;0.80;0.30;;;10.60;72.10;;;;;;5113636;27;20054;-69
2021/12/04 14:28:44;;;;;;;0.98;0.30;;;10.70;72.40;;;;;;5101991;27;20023;-73
2021/12/04 14:31:12;;;;;;;1.63;0.30;;;10.70;71.70;;;;;;5123395;27;20028;-69
2021/12/04 14:33:40;;;;;;;0.93;0.40;;;10.90;71.70;;;;;;5117983;27;20080;-68
2021/12/04 14:36:06;;;;;;;0.47;0.30;;;11.00;72.40;;;;;;5122460;27;20092;-69
2021/12/04 14:38:33;;;;;;;1.30;0.30;;;11.00;71.00;;;;;;5110938;27;20020;-70
2021/12/04 14:41:04;;;;;;;0.93;0.40;;;10.80;71.30;;;;;;5118934;27;20043;-69
2021/12/04 14:43:34;;;;;;;0.52;0.30;;;10.70;70.90;;;;;;5119802;27;20030;-68
2021/12/04 14:46:01;;;;;;;0.30;0.20;;;10.50;71.80;;;;;;5115173;27;20568;-68
2021/12/04 14:48:35;;;;;;;0.60;0.28;;;10.60;72.00;;;;;;5111410;28;20055;-69
2021/12/04 14:51:13;;;;;;;1.92;0.30;;;10.50;72.20;;;;;;5113752;27;20031;-69
2021/12/04 14:53:51;;;;;;;1.75;0.35;;;10.30;72.90;;;;;;5118249;27;20051;-69
2021/12/04 14:56:19;;;;;;;0.45;0.30;;;10.30;72.50;;;;;;5112581;27;20031;-68
2021/12/04 14:58:46;;;;;;;1.98;0.40;;;10.30;72.70;;;;;;5117370;28;20041;-68
2021/12/04 15:01:15;;;;;;;1.85;0.50;;;10.30;72.70;;;;;;5125498;27;20043;-65
2021/12/04 15:03:49;;;;;;;1.63;0.40;;;10.30;73.00;;;;;;5117798;27;20045;-66
2021/12/04 15:06:16;;;;;;;1.20;0.50;;;10.20;72.60;;;;;;5124180;28;20019;-66
2021/12/04 15:08:47;;;;;;;1.48;0.60;;;10.10;73.00;;;;;;5108896;28;20118;-65
2021/12/04 15:11:19;;;;;;;1.40;0.50;;;10.10;73.00;;;;;;5107648;28;20496;-66
2021/12/04 15:13:53;;;;;;;1.92;0.35;;;10.10;73.70;;;;;;5107879;28;20614;-67
2021/12/04 15:16:32;;;;;;;1.00;0.40;;;10.20;74.00;;;;;;5107299;28;20040;-64
2021/12/04 15:19:11;;;;;;;1.17;0.30;;;10.20;73.30;;;;;;5094413;28;20118;-67
2021/12/04 15:21:46;;;;;;;2.08;0.75;;;10.10;73.20;;;;;;5113384;28;20043;-66
2021/12/04 15:24:20;;;;;;;2.65;0.60;;;10.00;73.30;;;;;;5114258;28;20031;-67
2021/12/04 15:26:47;;;;;;;2.50;0.55;;;10.00;73.50;;;;;;5111024;28;20038;-65
2021/12/04 15:29:22;;;;;;;1.98;0.50;;;10.00;73.70;;;;;;5111776;28;20506;-64
2021/12/04 15:31:49;;;;;;;2.50;0.70;;;9.90;74.20;;;;;;5111814;28;20030;-64
2021/12/04 15:34:16;;;;;;;3.50;0.70;;;9.90;73.90;;;;;;5111864;28;20503;-64
2021/12/04 15:36:47;;;;;;;2.35;0.50;;;9.90;73.90;;;;;;5113047;28;20031;-64
2021/12/04 15:39:29;;;;;;;2.65;0.60;;;9.90;73.80;;;;;;5114174;28;20031;-64
2021/12/04 15:55:05;;;;;;;2.88;0.70;;;10.20;74.30;;;;;;5096098;28;20530;-66
2021/12/04 15:57:31;;;;;;;3.42;0.90;;;10.20;74.40;;;;;;5113476;28;20027;-66
2021/12/04 16:00:00;;;;;;;4.45;1.00;;;10.20;73.50;;;;;;5112281;28;20023;-66
2021/12/04 16:02:34;;;;;;;2.67;0.80;;;10.20;73.70;;;;;;5114401;27;20073;-66
2021/12/04 16:05:11;;;;;;;2.50;0.80;;;10.20;73.70;;;;;;5109606;28;20112;-66
2021/12/04 16:07:38;;;;;;;1.33;0.63;;;10.10;73.30;;;;;;5110884;28;20024;-65
2021/12/04 16:10:13;;;;;;;2.45;0.90;;;10.10;73.70;;;;;;5093035;28;20051;-65
2021/12/04 16:12:40;;;;;;;2.08;0.85;;;10.10;74.00;;;;;;5113738;28;20038;-64
2021/12/04 16:15:10;;;;;;;2.88;0.70;;;10.10;73.80;;;;;;5112472;28;20019;-64
2021/12/04 16:17:37;;;;;;;2.50;0.95;;;10.00;74.00;;;;;;5110321;28;20023;-65
2021/12/04 16:20:10;;;;;;;1.83;0.60;;;10.00;73.90;;;;;;5110399;28;20070;-65
2021/12/04 16:22:37;;;;;;;4.47;0.73;;;10.00;73.80;;;;;;5110756;28;20031;-66
2021/12/04 16:25:30;;;;;;;4.53;0.70;;;10.00;73.30;;;;;;5110994;28;20024;-64
2021/12/04 16:28:06;;;;;;;3.43;1.10;;;10.10;74.90;;;;;;5076741;28;20391;-68
2021/12/04 16:38:01;;;;;;;2.97;0.70;;;10.10;73.30;;;;;;5110738;28;20114;-68